Terminal Aerodrome Forecast
Issued by NWS

Home | Current Version | Previous Version | Text Only | Print | Product List | Glossary On
Versions: 1 2 3 4 5 6 7 8 9 10 11 12 13 14 15 16 17 18 19 20 21 22 23 24 25
000
FTUS42 KGSP 231700
TAFHKY
TAF
KHKY 231735Z 2318/2418 03005KT P6SM VCTS BKN050CB
      TEMPO 2320/2324 5SM TSRA OVC040CB
     FM240400 05004KT 6SM BR VCSH BKN020
     FM240800 06004KT 4SM BR VCSH OVC008
     FM241300 06005KT 5SM -SHRA BR OVC012=

USA.gov is the U.S. government's official web portal to all federal, state and local government web resources and services.